Time;durP1;ratioP1;P1;durP2;ratioP2;P2;SDS_P1;SDS_P2;PMS_P1;PMS_P2;Temp;Humidity;BMP_temperature;BMP_pressure;BME280_temperature;BME280_humidity;BME280_pressure;Samples;Min_cycle;Max_cycle;Signal;HPM_P1;HPM_P2
2024/04/02 00:02:10;;;;;;;;;;;10.70;69.20;;;;;;20916559;28;19920;-57
2024/04/02 00:12:11;;;;;;;;;;;10.70;69.00;;;;;;20914728;28;19917;-56
2024/04/02 00:22:12;;;;;;;;;;;10.60;69.00;;;;;;20914974;28;20401;-56
2024/04/02 00:32:13;;;;;;;;;;;10.60;68.90;;;;;;20914286;28;19960;-56
2024/04/02 00:42:16;;;;;;;;;;;10.60;68.80;;;;;;20907686;28;20393;-56
2024/04/02 00:52:17;;;;;;;;;;;10.50;68.80;;;;;;20829713;28;19929;-56
2024/04/02 01:02:18;;;;;;;;;;;10.50;68.80;;;;;;20830935;28;20253;-56
2024/04/02 01:12:20;;;;;;;;;;;10.50;68.80;;;;;;20828725;28;19917;-56
2024/04/02 01:22:22;;;;;;;;;;;10.50;69.00;;;;;;20828879;28;19909;-57
2024/04/02 01:32:23;;;;;;;;;;;10.40;69.20;;;;;;20830106;28;19967;-56
2024/04/02 01:42:24;;;;;;;;;;;10.20;69.30;;;;;;20845330;28;19927;-56
2024/04/02 01:52:25;;;;;;;;;;;10.20;69.40;;;;;;20926754;28;20305;-57
2024/04/02 02:02:26;;;;;;;;;;;10.20;69.30;;;;;;20924854;28;19953;-58
2024/04/02 02:12:27;;;;;;;;;;;10.10;69.50;;;;;;20923912;28;19921;-57
2024/04/02 02:22:28;;;;;;;;;;;10.10;69.40;;;;;;20923219;28;19915;-56
2024/04/02 02:32:29;;;;;;;;;;;10.10;69.40;;;;;;20923631;28;19916;-56
2024/04/02 02:42:30;;;;;;;;;;;10.10;69.40;;;;;;20913352;28;20424;-57
2024/04/02 02:52:32;;;;;;;;;;;10.10;69.60;;;;;;20837963;28;19921;-57
2024/04/02 03:02:36;;;;;;;;;;;10.00;69.80;;;;;;20839000;28;19913;-57
2024/04/02 03:12:37;;;;;;;;;;;9.90;69.90;;;;;;20838023;28;20079;-56
2024/04/02 03:22:38;;;;;;;;;;;9.90;69.80;;;;;;20836082;28;19941;-56
2024/04/02 03:32:40;;;;;;;;;;;9.70;69.60;;;;;;20835177;28;19924;-57
2024/04/02 03:42:41;;;;;;;;;;;9.50;69.80;;;;;;20834314;28;20282;-57
2024/04/02 03:52:42;;;;;;;;;;;9.40;69.90;;;;;;20834798;28;19925;-57
2024/04/02 04:02:43;;;;;;;;;;;9.30;70.10;;;;;;20833462;28;20378;-57
2024/04/02 04:12:45;;;;;;;;;;;9.30;70.30;;;;;;20831902;28;20373;-58
2024/04/02 04:22:50;;;;;;;;;;;9.30;70.30;;;;;;20768795;28;19909;-57
2024/04/02 04:32:51;;;;;;;;;;;9.30;70.40;;;;;;20750545;28;20304;-56
2024/04/02 04:42:52;;;;;;;;;;;9.20;70.60;;;;;;20748235;28;19953;-57
2024/04/02 04:52:53;;;;;;;;;;;9.30;70.70;;;;;;20749469;28;20287;-57
2024/04/02 05:02:54;;;;;;;;;;;9.20;70.70;;;;;;20748014;28;19952;-56
2024/04/02 05:12:56;;;;;;;;;;;9.20;70.40;;;;;;20752154;28;19917;-57
2024/04/02 05:22:58;;;;;;;;;;;9.30;70.50;;;;;;20763121;28;19909;-57
2024/04/02 05:32:59;;;;;;;;;;;9.30;70.40;;;;;;20762525;28;19924;-57
2024/04/02 05:43:00;;;;;;;;;;;9.20;70.60;;;;;;20763312;28;19921;-57
2024/04/02 05:53:01;;;;;;;;;;;9.20;70.70;;;;;;20762660;28;19921;-57
2024/04/02 06:03:03;;;;;;;;;;;9.20;70.60;;;;;;20760541;28;19921;-57
2024/04/02 06:13:06;;;;;;;;;;;9.20;70.70;;;;;;20759201;28;19918;-57
2024/04/02 06:23:08;;;;;;;;;;;9.20;70.30;;;;;;20759137;28;19909;-57
2024/04/02 06:33:10;;;;;;;;;;;9.20;69.90;;;;;;20757858;28;19917;-57
2024/04/02 06:43:13;;;;;;;;;;;9.10;69.80;;;;;;20771781;28;19921;-56
2024/04/02 06:53:14;;;;;;;;;;;9.20;69.30;;;;;;20838999;28;19922;-57
2024/04/02 07:03:16;;;;;;;;;;;9.30;68.10;;;;;;20838722;28;20401;-57
2024/04/02 07:13:17;;;;;;;;;;;9.60;67.00;;;;;;20837819;28;20314;-57
2024/04/02 07:23:20;;;;;;;;;;;9.80;66.70;;;;;;20835730;28;19909;-57
2024/04/02 07:33:22;;;;;;;;;;;10.00;66.80;;;;;;20835907;28;19917;-57
2024/04/02 07:43:23;;;;;;;;;;;10.20;65.90;;;;;;20834868;28;19951;-57
2024/04/02 07:53:25;;;;;;;;;;;10.50;65.00;;;;;;20834963;28;19925;-56
2024/04/02 08:03:26;;;;;;;;;;;10.60;65.40;;;;;;20834073;28;19921;-56
2024/04/02 08:13:27;;;;;;;;;;;10.80;64.80;;;;;;20831611;28;19917;-57
2024/04/02 08:23:29;;;;;;;;;;;11.00;64.60;;;;;;20832314;28;20346;-57
2024/04/02 08:33:31;;;;;;;;;;;11.00;64.60;;;;;;20832064;28;20259;-58
2024/04/02 08:43:32;;;;;;;;;;;11.00;65.10;;;;;;20830351;28;19921;-57
2024/04/02 08:53:33;;;;;;;;;;;11.00;65.40;;;;;;20829314;28;19921;-58
2024/04/02 09:03:35;;;;;;;;;;;11.30;64.50;;;;;;20829035;28;19923;-57
2024/04/02 09:13:38;;;;;;;;;;;11.70;63.90;;;;;;20828793;28;19917;-57
2024/04/02 09:23:39;;;;;;;;;;;12.00;62.90;;;;;;20829736;28;20378;-57
2024/04/02 09:33:41;;;;;;;;;;;12.50;65.50;;;;;;20829160;28;19953;-60
2024/04/02 09:43:43;;;;;;;;;;;12.70;64.70;;;;;;20828190;28;19928;-55
2024/04/02 09:53:44;;;;;;;;;;;13.70;63.40;;;;;;20826884;28;19925;-57
2024/04/02 10:03:46;;;;;;;;;;;14.10;61.10;;;;;;20836256;28;19995;-58
2024/04/02 10:13:48;;;;;;;;;;;13.70;62.80;;;;;;20841374;28;19924;-59
2024/04/02 10:23:51;;;;;;;;;;;13.30;63.40;;;;;;20842594;28;19978;-60
2024/04/02 10:33:54;;;;;;;;;;;13.20;63.60;;;;;;20850960;28;19955;-57
2024/04/02 10:43:57;;;;;;;;;;;13.40;63.50;;;;;;20968494;28;19921;-57
2024/04/02 10:53:59;;;;;;;;;;;13.70;63.00;;;;;;21002220;28;19920;-59
2024/04/02 11:04:02;;;;;;;;;;;14.00;61.90;;;;;;21003755;28;19912;-57
2024/04/02 11:14:06;;;;;;;;;;;14.20;60.70;;;;;;21002629;28;20373;-57
2024/04/02 11:34:35;;;;;;;;;;;15.00;57.90;;;;;;20997652;28;19973;-57
2024/04/02 11:44:36;;;;;;;;;;;15.00;56.00;;;;;;20987180;28;19921;-57
2024/04/02 11:54:37;;;;;;;;;;;15.20;54.50;;;;;;20987759;28;19920;-57
2024/04/02 12:04:38;;;;;;;;;;;15.40;55.90;;;;;;20997798;28;20310;-57
2024/04/02 12:14:39;;;;;;;;;;;15.30;53.70;;;;;;20998267;28;20361;-57
2024/04/02 12:24:41;;;;;;;;;;;15.60;54.20;;;;;;20997129;28;19908;-57
2024/04/02 12:34:42;;;;;;;;;;;15.50;53.20;;;;;;20996171;28;19916;-57
2024/04/02 12:44:45;;;;;;;;;;;15.50;54.60;;;;;;20995595;28;19920;-57
2024/04/02 12:54:46;;;;;;;;;;;15.40;54.80;;;;;;20995127;28;19921;-56
2024/04/02 13:04:48;;;;;;;;;;;15.20;55.90;;;;;;20994786;28;19928;-58
2024/04/02 13:14:49;;;;;;;;;;;15.20;56.10;;;;;;20995969;28;19931;-59
2024/04/02 13:24:52;;;;;;;;;;;15.20;54.90;;;;;;20994284;28;19916;-57
2024/04/02 13:34:53;;;;;;;;;;;15.20;54.70;;;;;;20999163;28;19917;-57
2024/04/02 13:44:55;;;;;;;;;;;15.30;53.40;;;;;;21008904;28;20014;-57
2024/04/02 13:54:57;;;;;;;;;;;15.40;52.40;;;;;;21009052;28;20391;-56
2024/04/02 14:04:58;;;;;;;;;;;15.40;51.80;;;;;;21006923;28;19961;-58
2024/04/02 14:14:59;;;;;;;;;;;15.30;51.60;;;;;;21006289;28;19952;-59
2024/04/02 14:25:00;;;;;;;;;;;15.30;52.40;;;;;;21007566;28;20316;-58
2024/04/02 14:35:02;;;;;;;;;;;15.40;51.20;;;;;;21006812;28;20376;-58
2024/04/02 14:45:08;;;;;;;;;;;15.60;50.90;;;;;;21004856;28;20008;-58
2024/04/02 14:55:09;;;;;;;;;;;15.60;51.20;;;;;;21003495;28;19921;-59
2024/04/02 15:05:13;;;;;;;;;;;15.70;51.90;;;;;;21004386;28;20335;-58
2024/04/02 15:15:14;;;;;;;;;;;15.70;52.60;;;;;;21002039;28;19971;-58
2024/04/02 15:25:19;;;;;;;;;;;15.70;53.00;;;;;;21000552;28;19920;-60
2024/04/02 15:35:20;;;;;;;;;;;15.80;53.20;;;;;;21000606;28;19917;-58
2024/04/02 15:45:22;;;;;;;;;;;15.80;53.20;;;;;;20968595;28;19999;-58
2024/04/02 15:55:24;;;;;;;;;;;15.80;53.60;;;;;;20916492;28;19929;-58
2024/04/02 16:05:25;;;;;;;;;;;15.80;53.10;;;;;;20915193;28;19999;-58
2024/04/02 16:15:27;;;;;;;;;;;15.80;53.30;;;;;;20916378;28;20374;-59
2024/04/02 16:25:30;;;;;;;;;;;16.00;54.30;;;;;;20913639;28;20385;-60
2024/04/02 16:35:31;;;;;;;;;;;16.10;54.30;;;;;;20914775;28;19917;-60
2024/04/02 16:45:33;;;;;;;;;;;16.00;52.80;;;;;;20913322;28;19920;-60
2024/04/02 16:55:34;;;;;;;;;;;15.90;52.50;;;;;;20912359;28;19928;-59
2024/04/02 17:05:37;;;;;;;;;;;16.00;53.40;;;;;;20912315;28;19919;-58
2024/04/02 17:15:38;;;;;;;;;;;15.90;52.10;;;;;;20927717;28;19952;-60
2024/04/02 17:25:39;;;;;;;;;;;16.00;52.70;;;;;;20929107;28;19909;-58
2024/04/02 17:35:40;;;;;;;;;;;16.10;55.00;;;;;;20928615;28;20285;-57
2024/04/02 17:45:48;;;;;;;;;;;16.00;54.60;;;;;;20959905;28;19960;-57
2024/04/02 17:56:03;;;;;;;;;;;15.80;54.00;;;;;;21008857;28;19920;-57
2024/04/02 18:06:04;;;;;;;;;;;15.70;54.80;;;;;;21009576;28;20435;-60
2024/04/02 18:16:07;;;;;;;;;;;15.60;55.10;;;;;;21008533;28;19951;-58
2024/04/02 18:26:09;;;;;;;;;;;15.50;56.10;;;;;;21008083;28;19908;-58
2024/04/02 18:36:12;;;;;;;;;;;15.50;56.30;;;;;;21005957;28;20289;-58
2024/04/02 18:46:13;;;;;;;;;;;15.40;55.70;;;;;;21005203;28;19921;-59
2024/04/02 18:56:14;;;;;;;;;;;15.20;55.90;;;;;;21005727;28;19927;-58
2024/04/02 19:06:15;;;;;;;;;;;15.20;55.50;;;;;;21004851;28;19916;-59
2024/04/02 19:16:16;;;;;;;;;;;15.10;56.20;;;;;;21003161;28;19917;-59
2024/04/02 19:26:17;;;;;;;;;;;15.10;56.30;;;;;;21002321;28;19908;-59
2024/04/02 19:36:19;;;;;;;;;;;14.90;55.10;;;;;;21001706;28;19962;-59
2024/04/02 19:46:23;;;;;;;;;;;14.80;54.80;;;;;;21000084;28;19974;-59
2024/04/02 19:56:26;;;;;;;;;;;14.70;53.40;;;;;;21001029;28;20316;-57
2024/04/02 20:06:27;;;;;;;;;;;14.70;53.90;;;;;;21000248;28;19999;-58
2024/04/02 20:16:28;;;;;;;;;;;14.60;53.20;;;;;;20998070;28;19988;-59
2024/04/02 20:26:29;;;;;;;;;;;14.50;53.50;;;;;;20997798;28;19908;-59
2024/04/02 20:36:30;;;;;;;;;;;14.40;53.80;;;;;;20996877;28;19924;-59
2024/04/02 20:46:31;;;;;;;;;;;14.30;54.80;;;;;;20996069;28;19921;-59
2024/04/02 20:56:33;;;;;;;;;;;14.20;56.10;;;;;;20996141;28;19921;-59
2024/04/02 21:06:34;;;;;;;;;;;14.00;56.60;;;;;;20996417;28;19912;-59
2024/04/02 21:16:35;;;;;;;;;;;13.90;57.50;;;;;;20995757;28;20377;-59
2024/04/02 21:26:36;;;;;;;;;;;13.90;57.10;;;;;;20995843;28;19969;-59
2024/04/02 21:36:38;;;;;;;;;;;13.80;57.40;;;;;;20993761;28;19916;-58
2024/04/02 21:46:39;;;;;;;;;;;13.70;57.70;;;;;;20951199;28;19921;-58
2024/04/02 21:56:41;;;;;;;;;;;13.70;58.20;;;;;;20915411;28;19921;-59
2024/04/02 22:06:42;;;;;;;;;;;13.90;58.90;;;;;;20925005;28;19999;-59
2024/04/02 22:16:43;;;;;;;;;;;13.70;58.70;;;;;;20925443;28;19921;-59
2024/04/02 22:26:47;;;;;;;;;;;13.70;58.70;;;;;;20924459;28;19991;-58
2024/04/02 22:36:49;;;;;;;;;;;13.50;59.20;;;;;;20923598;28;19932;-59
2024/04/02 22:46:50;;;;;;;;;;;13.50;59.60;;;;;;20922137;28;19927;-59
2024/04/02 22:56:52;;;;;;;;;;;13.40;59.70;;;;;;20922233;28;20369;-58
2024/04/02 23:06:53;;;;;;;;;;;13.30;59.80;;;;;;20919740;28;19955;-58
2024/04/02 23:16:55;;;;;;;;;;;13.20;59.70;;;;;;20921005;28;19917;-57
2024/04/02 23:26:56;;;;;;;;;;;13.10;59.90;;;;;;20918747;28;19912;-58
2024/04/02 23:36:57;;;;;;;;;;;13.20;59.70;;;;;;20918265;28;19916;-59
2024/04/02 23:46:58;;;;;;;;;;;13.10;59.50;;;;;;20963198;28;19928;-59
2024/04/02 23:56:59;;;;;;;;;;;13.10;59.60;;;;;;20999855;28;20010;-58
